Time;durP1;ratioP1;P1;durP2;ratioP2;P2;SDS_P1;SDS_P2;PMS_P1;PMS_P2;Temp;Humidity;BMP_temperature;BMP_pressure;BME280_temperature;BME280_humidity;BME280_pressure;Samples;Min_cycle;Max_cycle;Signal;HPM_P1;HPM_P2
2023/04/29 07:22:42;;;;;;;30.65;23.67;;;;;;;-145.79;94.06;78403.31;5253094;27;1924957;-73
2023/04/29 07:25:14;;;;;;;25.60;22.92;;;;;;;-145.79;93.60;78403.31;5283943;28;20036;-73
2023/04/29 07:27:46;;;;;;;25.52;21.25;;;;;;;-145.79;94.03;78401.19;5287624;28;20020;-73
2023/04/29 07:30:18;;;;;;;23.83;21.23;;;;;;;-145.79;93.69;78390.59;5300624;28;20031;-74
2023/04/29 07:32:49;;;;;;;28.30;22.30;;;;;;;-145.79;93.88;78392.72;5286966;28;20044;-73
2023/04/29 07:35:21;;;;;;;23.48;20.77;;;;;;;-145.79;93.66;78379.97;5285042;28;20019;-79
2023/04/29 07:37:52;;;;;;;21.52;17.67;;;;;;;-145.79;95.44;78346.06;5283011;28;20033;-74
2023/04/29 07:40:24;;;;;;;22.83;18.50;;;;;;;-145.79;94.31;78337.59;5278513;28;20032;-74
2023/04/29 07:42:55;;;;;;;21.23;19.02;;;;;;;-145.79;93.56;78329.09;5299897;28;20040;-74
2023/04/29 07:45:26;;;;;;;24.98;19.45;;;;;;;-145.79;92.06;78343.94;5287190;28;20029;-75
2023/04/29 07:47:57;;;;;;;23.10;20.38;;;;;;;-145.79;92.32;78331.22;5299753;28;20078;-75
2023/04/29 07:50:29;;;;;;;41.22;35.00;;;;;;;-145.79;92.29;78318.50;5298871;28;20115;-72
2023/04/29 07:53:01;;;;;;;22.10;19.80;;;;;;;-145.79;91.86;78301.53;5278653;28;20040;-72
2023/04/29 07:55:32;;;;;;;24.15;20.48;;;;;;;-145.79;89.34;78331.22;5278871;28;20473;-73
2023/04/29 07:58:03;;;;;;;20.55;17.63;;;;;;;-145.79;92.09;78284.56;5284623;28;20036;-72
2023/04/29 08:00:34;;;;;;;19.50;17.45;;;;;;;-145.79;90.72;78284.56;5299261;28;20107;-73
2023/04/29 08:03:06;;;;;;;22.88;19.00;;;;;;;-145.79;90.72;78280.34;5300444;28;20497;-73
2023/04/29 08:05:37;;;;;;;21.20;18.70;;;;;;;-145.79;89.24;78282.47;5284312;28;20054;-72
2023/04/29 08:08:08;;;;;;;18.48;16.55;;;;;;;-145.79;89.16;78263.38;5283055;28;20035;-72
2023/04/29 08:10:42;;;;;;;22.02;18.02;;;;;;;-145.79;88.99;78257.03;5286218;28;20032;-71
2023/04/29 08:13:13;;;;;;;20.45;18.27;;;;;;;-145.79;88.14;78265.50;5277909;28;20502;-72
2023/04/29 08:15:44;;;;;;;21.67;19.52;;;;;;;-145.79;88.86;78259.13;5278366;28;20067;-71
2023/04/29 08:18:16;;;;;;;19.73;17.67;;;;;;;-145.79;87.13;78263.38;5278764;28;20051;-72
2023/04/29 08:20:48;;;;;;;19.67;17.67;;;;;;;-145.79;87.03;78257.03;5278426;28;20041;-74
2023/04/29 08:23:19;;;;;;;19.45;17.42;;;;;;;-145.79;87.62;78248.53;5277669;28;20016;-73
2023/04/29 08:25:51;;;;;;;18.23;16.40;;;;;;;-145.79;85.68;78265.50;5282689;28;20481;-72
2023/04/29 08:28:22;;;;;;;19.40;16.83;;;;;;;-145.79;84.42;78265.50;5298421;28;20052;-75
2023/04/29 08:34:21;;;;;;;24.88;22.00;;;;;;;-145.79;85.62;78218.84;5264630;28;20040;-73
2023/04/29 08:36:52;;;;;;;21.40;17.85;;;;;;;-145.79;84.87;78212.50;5269348;28;20017;-73
2023/04/29 08:39:24;;;;;;;19.92;16.08;;;;;;;-145.79;83.73;78225.22;5274212;28;20452;-72
2023/04/29 08:41:56;;;;;;;19.08;16.73;;;;;;;-145.79;82.72;78237.94;5283375;28;20427;-72
2023/04/29 08:44:29;;;;;;;19.23;15.07;;;;;;;-145.79;82.62;78231.56;5274315;28;20131;-71
2023/04/29 08:47:00;;;;;;;18.05;16.25;;;;;;;-145.79;83.27;78225.22;5264552;28;20032;-72
2023/04/29 08:49:32;;;;;;;17.15;15.43;;;;;;;-145.79;81.47;78218.84;5271708;28;20085;-71
2023/04/29 08:52:04;;;;;;;15.65;14.05;;;;;;;-145.79;80.22;78214.63;5285082;28;20027;-76
2023/04/29 08:54:35;;;;;;;17.02;15.25;;;;;;;-145.79;80.62;78204.00;5271792;28;20037;-72
2023/04/29 08:57:10;;;;;;;17.13;15.30;;;;;;;-145.79;80.94;78199.78;5283526;28;20051;-72
2023/04/29 08:59:42;;;;;;;15.90;14.25;;;;;;;-145.79;81.07;78197.66;5273516;28;20064;-72
2023/04/29 09:02:16;;;;;;;20.52;16.10;;;;;;;-145.79;80.34;78199.78;5264158;28;20377;-71
2023/04/29 09:05:12;;;;;;;17.05;15.25;;;;;;;-145.79;80.52;78174.34;5263384;28;20096;-70
2023/04/29 09:07:45;;;;;;;19.23;14.63;;;;;;;-145.79;78.13;78184.94;5284052;28;20028;-72
2023/04/29 09:10:17;;;;;;;18.67;15.10;;;;;;;-145.79;78.34;78201.91;5283917;28;20028;-76
2023/04/29 09:12:48;;;;;;;16.48;14.73;;;;;;;-145.79;78.62;78187.06;5283021;28;20032;-72
2023/04/29 09:15:20;;;;;;;16.10;14.50;;;;;;;-145.79;77.64;78204.00;5283866;28;20048;-72
2023/04/29 09:17:52;;;;;;;16.30;13.18;;;;;;;-145.79;78.78;78184.94;5283872;28;20376;-74
2023/04/29 09:20:23;;;;;;;15.55;13.63;;;;;;;-145.79;77.74;78199.78;5284519;28;20024;-71
2023/04/29 09:23:00;;;;;;;16.58;13.85;;;;;;;-145.79;78.86;78184.94;5274444;28;20044;-73
2023/04/29 09:25:32;;;;;;;15.48;13.25;;;;;;;-145.79;77.75;78178.56;5262383;28;20017;-72
2023/04/29 09:28:16;;;;;;;14.60;12.38;;;;;;;-145.79;77.90;78170.09;5272929;28;20099;-71
2023/04/29 09:30:49;;;;;;;14.52;12.75;;;;;;;-145.79;78.09;78161.63;5284281;28;20028;-71
2023/04/29 09:33:20;;;;;;;13.30;12.00;;;;;;;-145.79;76.00;78138.28;5283439;28;20029;-70
2023/04/29 09:35:52;;;;;;;14.48;13.05;;;;;;;-145.79;75.30;78112.84;5284376;28;20464;-71
2023/04/29 09:38:23;;;;;;;13.85;12.38;;;;;;;-145.79;74.95;78098.00;5283909;28;20055;-72
2023/04/29 09:40:55;;;;;;;14.43;12.93;;;;;;;-145.79;74.53;78072.56;5272808;28;20033;-71
2023/04/29 09:43:26;;;;;;;32.83;29.55;;;;;;;-145.79;72.54;78081.06;5269516;28;20048;-71
2023/04/29 09:45:57;;;;;;;21.08;17.85;;;;;;;-145.79;71.92;78072.56;5266050;28;20532;-71
2023/04/29 09:48:31;;;;;;;11.73;10.55;;;;;;;-145.79;69.81;78085.28;5274011;28;20056;-72
2023/04/29 09:51:02;;;;;;;13.20;10.73;;;;;;;-145.79;69.91;78089.53;5262409;28;20081;-72
2023/04/29 09:53:36;;;;;;;14.02;10.35;;;;;;;-145.79;70.36;78081.06;5280324;28;20021;-73
2023/04/29 09:56:08;;;;;;;19.83;17.80;;;;;;;-145.79;69.85;78083.19;5283773;28;20031;-73
2023/04/29 09:58:40;;;;;;;36.53;32.83;;;;;;;-145.79;70.68;78081.06;5264815;28;20025;-74
2023/04/29 10:01:13;;;;;;;16.77;14.10;;;;;;;-145.79;70.12;78095.91;5261507;28;20056;-73
2023/04/29 10:03:44;;;;;;;12.85;10.77;;;;;;;-145.79;69.90;78098.00;5262470;28;20108;-72
2023/04/29 10:06:20;;;;;;;12.55;11.35;;;;;;;-145.79;70.64;78106.50;5262712;28;20504;-73
2023/04/29 10:08:51;;;;;;;13.38;10.50;;;;;;;-145.79;70.52;78098.00;5262004;28;20031;-73
2023/04/29 10:11:22;;;;;;;11.85;10.27;;;;;;;-145.79;69.02;78102.25;5261842;28;20460;-73
2023/04/29 10:13:55;;;;;;;12.23;9.93;;;;;;;-145.79;69.30;78102.25;5266212;28;20161;-74
2023/04/29 10:16:33;;;;;;;10.90;9.82;;;;;;;-145.79;69.28;78100.13;5283100;28;20554;-73
2023/04/29 10:19:10;;;;;;;12.32;9.88;;;;;;;-145.79;70.43;78089.53;5281427;28;20074;-71
2023/04/29 10:21:42;;;;;;;10.63;9.60;;;;;;;-145.79;69.10;78093.78;5267252;28;20061;-70
2023/04/29 10:24:16;;;;;;;10.10;8.95;;;;;;;-145.79;71.94;78059.84;5265202;28;20834;-69
2023/04/29 10:26:50;;;;;;;11.82;10.00;;;;;;;-145.79;69.01;78072.56;5261379;28;20477;-70
2023/04/29 10:29:24;;;;;;;13.60;12.18;;;;;;;-145.79;69.75;78070.44;5261919;28;20021;-70
2023/04/29 10:31:57;;;;;;;13.88;10.60;;;;;;;-145.79;68.70;78081.06;5274826;28;20040;-71
2023/04/29 10:34:32;;;;;;;15.90;14.20;;;;;;;-145.79;69.25;78072.56;5282018;28;20055;-71
2023/04/29 10:37:05;;;;;;;11.95;10.68;;;;;;;-145.79;69.46;78072.56;5279859;28;20025;-71
2023/04/29 10:39:54;;;;;;;10.57;9.07;;;;;;;-145.79;69.57;78055.63;5278171;28;20444;-72
2023/04/29 10:42:41;;;;;;;9.35;7.85;;;;;;;-145.79;66.13;78064.09;5259416;28;20036;-70
2023/04/29 10:45:26;;;;;;;11.02;8.85;;;;;;;-145.79;66.73;78051.38;5259818;28;20029;-72
2023/04/29 10:48:09;;;;;;;9.90;8.93;;;;;;;-145.79;nan;78034.41;5259937;28;20047;-73
2023/04/29 10:50:46;;;;;;;12.90;11.60;;;;;;;-145.79;65.39;78045.00;5260501;28;20448;-72
2023/04/29 10:53:19;;;;;;;9.38;8.48;;;;;;;-145.79;64.84;78047.13;5261537;28;20029;-75
2023/04/29 10:55:58;;;;;;;9.07;8.27;;;;;;;-145.79;64.92;78034.41;5275932;28;20040;-73
2023/04/29 10:58:45;;;;;;;9.48;8.48;;;;;;;-145.79;63.46;78034.41;5262090;28;20200;-71
2023/04/29 11:01:16;;;;;;;11.15;8.90;;;;;;;-145.79;64.38;78036.53;5261851;28;20032;-71
2023/04/29 11:03:57;;;;;;;10.98;9.90;;;;;;;-145.79;65.50;78034.41;5260598;28;20480;-69
2023/04/29 11:06:34;;;;;;;10.32;9.20;;;;;;;-145.79;66.03;78021.69;5262105;28;20372;-70
2023/04/29 11:09:29;;;;;;;9.30;8.13;;;;;;;-145.79;64.98;78021.69;5261794;28;20485;-69
2023/04/29 11:12:04;;;;;;;8.77;7.88;;;;;;;-145.79;63.74;78025.94;5260999;28;20099;-71
2023/04/29 11:14:41;;;;;;;9.57;8.68;;;;;;;-145.79;63.64;78028.06;5261890;28;20017;-71
2023/04/29 11:17:14;;;;;;;10.00;8.70;;;;;;;-145.79;63.54;78021.69;5260879;28;20079;-72
2023/04/29 11:19:49;;;;;;;12.63;10.18;;;;;;;-145.79;63.40;78025.94;5261070;28;20464;-71
2023/04/29 11:22:24;;;;;;;11.13;9.13;;;;;;;-145.79;64.55;78025.94;5261562;28;20135;-69
2023/04/29 11:25:01;;;;;;;10.60;9.50;;;;;;;-145.79;64.81;78030.19;5260536;28;20025;-69
2023/04/29 11:27:34;;;;;;;8.90;8.07;;;;;;;-145.79;65.12;78030.19;5279750;28;20074;-70
2023/04/29 11:30:06;;;;;;;11.25;8.55;;;;;;;-145.79;64.38;78034.41;5273396;28;20025;-71
2023/04/29 11:32:39;;;;;;;9.93;8.57;;;;;;;-145.79;64.41;78042.91;5262719;28;20033;-70
2023/04/29 11:35:15;;;;;;;10.93;8.73;;;;;;;-145.79;64.76;78042.91;5280724;28;20028;-71
2023/04/29 11:37:47;;;;;;;15.88;12.75;;;;;;;-145.79;65.88;78030.19;5279360;28;20056;-70
2023/04/29 11:40:18;;;;;;;27.83;21.88;;;;;;;-145.79;63.76;78038.66;5278532;28;20064;-70
2023/04/29 11:42:50;;;;;;;14.35;12.13;;;;;;;-145.79;63.88;78028.06;5271767;28;20468;-70
2023/04/29 11:45:21;;;;;;;136.43;103.72;;;;;;;-145.79;63.52;78030.19;5262366;28;20091;-70
2023/04/29 11:47:52;;;;;;;229.77;187.55;;;;;;;-145.79;63.64;78015.34;5260917;28;20482;-72
2023/04/29 11:50:23;;;;;;;15.35;12.65;;;;;;;-145.79;61.84;78011.09;5260260;28;20025;-70
2023/04/29 11:52:56;;;;;;;11.38;9.45;;;;;;;-145.79;62.35;78006.84;5260296;28;20040;-70
2023/04/29 11:55:28;;;;;;;9.88;8.80;;;;;;;-145.79;62.17;77998.38;5265272;28;20484;-70
2023/04/29 11:57:59;;;;;;;12.40;11.18;;;;;;;-145.79;63.82;77981.41;5271099;28;20070;-70
2023/04/29 12:00:30;;;;;;;17.35;13.40;;;;;;;-145.79;61.05;77970.81;5259663;28;20108;-70
2023/04/29 12:03:12;;;;;;;8.60;7.53;;;;;;;-145.79;61.31;77964.47;5260766;28;20036;-69
2023/04/29 12:05:54;;;;;;;10.90;8.90;;;;;;;-145.79;62.79;77962.34;5260750;28;20354;-69
2023/04/29 12:08:27;;;;;;;9.23;7.93;;;;;;;-145.79;60.93;77968.69;5261106;28;20025;-70
2023/04/29 12:10:59;;;;;;;8.55;7.40;;;;;;;-145.79;61.98;77962.34;5272318;28;20032;-70
2023/04/29 12:13:34;;;;;;;9.65;8.13;;;;;;;-145.79;61.48;77930.53;5275428;28;20036;-69
2023/04/29 12:16:06;;;;;;;9.95;7.93;;;;;;;-145.79;60.88;77941.13;5264686;28;20082;-70
2023/04/29 12:18:38;;;;;;;62.03;54.15;;;;;;;-145.79;61.07;77936.91;5263121;28;20468;-70
2023/04/29 12:21:09;;;;;;;10.63;9.57;;;;;;;-145.79;62.43;77924.19;5261262;28;20174;-70
2023/04/29 12:23:41;;;;;;;7.68;6.97;;;;;;;-145.79;60.44;77928.41;5264142;28;20025;-70
2023/04/29 12:26:13;;;;;;;7.80;6.93;;;;;;;-145.79;60.12;77913.56;5267739;28;20146;-71
2023/04/29 12:28:45;;;;;;;7.90;7.10;;;;;;;-145.79;59.52;77907.22;5275554;28;20032;-72
2023/04/29 12:31:16;;;;;;;7.75;6.90;;;;;;;-145.79;59.95;77902.97;5266880;28;20029;-70
2023/04/29 12:33:47;;;;;;;17.98;16.10;;;;;;;-145.79;57.84;77911.47;5264760;28;20306;-69
2023/04/29 12:36:19;;;;;;;9.18;8.23;;;;;;;-145.79;58.99;77900.84;5269655;28;20067;-70
2023/04/29 12:38:53;;;;;;;9.25;8.38;;;;;;;-145.79;58.59;77888.13;5270076;28;20062;-70
2023/04/29 12:41:45;;;;;;;7.70;6.47;;;;;;;-145.79;58.04;77873.31;5263098;28;20104;-70
2023/04/29 12:44:16;;;;;;;7.15;6.45;;;;;;;-145.79;57.47;77856.34;5263782;28;20067;-70
2023/04/29 12:46:48;;;;;;;9.43;8.45;;;;;;;-145.79;56.08;77858.47;5264888;28;20057;-70
2023/04/29 12:49:20;;;;;;;13.38;12.07;;;;;;;-145.79;56.19;77858.47;5262663;28;20063;-69
2023/04/29 12:51:51;;;;;;;8.52;6.75;;;;;;;-145.79;56.69;77877.53;5263909;28;20036;-69
2023/04/29 12:54:22;;;;;;;7.38;6.68;;;;;;;-145.79;57.51;77877.53;5272060;28;20039;-68
2023/04/29 12:56:54;;;;;;;10.13;7.80;;;;;;;-145.79;57.68;77879.66;5270878;28;20560;-69
2023/04/29 12:59:25;;;;;;;11.18;7.75;;;;;;;-145.79;56.98;77888.13;5272758;28;20095;-72
2023/04/29 13:01:57;;;;;;;6.78;6.07;;;;;;;-145.79;57.74;77879.66;5273032;28;20070;-71
2023/04/29 13:04:31;;;;;;;6.97;6.25;;;;;;;-145.79;57.28;77881.78;5263287;28;20032;-71
2023/04/29 13:07:07;;;;;;;6.72;6.03;;;;;;;-145.79;57.63;77879.66;5268357;28;20506;-71
2023/04/29 13:09:40;;;;;;;8.23;7.43;;;;;;;-145.79;57.58;77858.47;5272692;28;20070;-71
2023/04/29 13:12:11;;;;;;;9.40;7.18;;;;;;;-145.79;56.21;77843.63;5273290;28;20059;-71
2023/04/29 13:14:42;;;;;;;7.50;6.40;;;;;;;-145.79;55.65;77818.19;5272039;28;20021;-68
2023/04/29 13:17:14;;;;;;;7.53;6.47;;;;;;;-145.79;55.61;77786.38;5270805;28;20027;-70
2023/04/29 13:19:45;;;;;;;8.70;7.80;;;;;;;-145.79;54.21;77769.44;5273750;28;20021;-70
2023/04/29 13:22:17;;;;;;;7.43;6.65;;;;;;;-145.79;53.75;77758.81;5271805;28;20399;-69
2023/04/29 13:24:48;;;;;;;7.05;5.97;;;;;;;-145.79;53.25;77767.31;5271597;28;20048;-70
2023/04/29 13:27:19;;;;;;;6.82;5.97;;;;;;;-145.79;54.08;77771.53;5271645;28;20017;-73
2023/04/29 13:29:50;;;;;;;8.23;6.55;;;;;;;-145.79;54.09;77769.44;5272351;28;20035;-71
2023/04/29 13:32:23;;;;;;;7.32;6.30;;;;;;;-145.79;54.41;77786.38;5272639;28;20028;-69
2023/04/29 13:34:55;;;;;;;6.93;6.22;;;;;;;-145.79;55.70;77801.22;5273155;28;20020;-70
2023/04/29 13:37:26;;;;;;;7.53;6.82;;;;;;;-145.79;54.24;77807.59;5270889;28;20029;-69
2023/04/29 13:39:57;;;;;;;6.30;5.70;;;;;;;-145.79;53.26;77818.19;5269469;28;20025;-71
2023/04/29 13:42:29;;;;;;;7.05;6.35;;;;;;;-145.79;54.21;77818.19;5268826;28;20744;-71
2023/04/29 13:45:00;;;;;;;6.90;5.75;;;;;;;-145.79;54.91;77818.19;5272135;28;20063;-71
2023/04/29 13:47:31;;;;;;;6.32;5.70;;;;;;;-145.79;53.55;77824.53;5271545;28;20147;-70
2023/04/29 13:50:03;;;;;;;6.80;5.93;;;;;;;-145.79;54.92;77818.19;5272065;28;20451;-70
2023/04/29 13:52:34;;;;;;;6.30;5.32;;;;;;;-145.79;54.24;77818.19;5271975;28;20115;-70
2023/04/29 13:55:06;;;;;;;8.73;7.50;;;;;;;-145.79;54.54;77807.59;5268687;28;20050;-71
2023/04/29 13:57:37;;;;;;;7.07;5.55;;;;;;;-145.79;54.16;77811.81;5270844;28;20118;-70
2023/04/29 14:00:09;;;;;;;7.95;7.15;;;;;;;-145.79;54.32;77820.31;5270220;28;20025;-71
2023/04/29 14:02:42;;;;;;;10.05;6.03;;;;;;;-145.79;53.75;77809.69;5270198;28;20043;-72
2023/04/29 14:05:14;;;;;;;7.53;5.47;;;;;;;-145.79;53.67;77805.47;5271039;28;20033;-72
2023/04/29 14:07:45;;;;;;;5.53;4.95;;;;;;;-145.79;54.04;77813.94;5271565;28;20511;-72
2023/04/29 14:10:17;;;;;;;6.97;5.60;;;;;;;-145.79;53.75;77813.94;5272215;28;20044;-72
2023/04/29 14:12:48;;;;;;;5.40;4.90;;;;;;;-145.79;53.21;77820.31;5270324;28;20028;-72
2023/04/29 14:15:19;;;;;;;9.55;4.85;;;;;;;-145.79;52.31;77826.66;5271908;28;20094;-72
2023/04/29 14:17:52;;;;;;;6.10;5.60;;;;;;;-145.79;52.29;77833.03;5272945;28;20524;-72
2023/04/29 14:20:23;;;;;;;7.00;5.82;;;;;;;-145.79;52.81;77839.38;5271575;28;20017;-71
2023/04/29 14:22:54;;;;;;;5.60;4.70;;;;;;;-145.79;53.42;77837.25;5272903;28;20044;-73
2023/04/29 14:25:26;;;;;;;5.22;4.72;;;;;;;-145.79;52.79;77830.91;5270770;28;20013;-73
2023/04/29 14:27:57;;;;;;;7.78;5.47;;;;;;;-145.79;53.69;77818.19;5269318;28;20565;-71
2023/04/29 14:30:28;;;;;;;14.55;10.27;;;;;;;-145.79;53.60;77801.22;5270690;28;20461;-72
2023/04/29 14:33:00;;;;;;;8.23;7.43;;;;;;;-145.79;53.50;77807.59;5269357;28;20492;-71
2023/04/29 14:35:31;;;;;;;6.80;5.10;;;;;;;-145.79;53.60;77799.09;5270821;28;21363;-71
2023/04/29 14:38:03;;;;;;;6.40;5.55;;;;;;;-145.79;53.44;77803.34;5270483;28;20013;-70
2023/04/29 14:40:34;;;;;;;5.93;4.97;;;;;;;-145.79;52.59;77799.09;5270124;28;20052;-71
2023/04/29 14:43:05;;;;;;;6.75;5.10;;;;;;;-145.79;52.16;77801.22;5271300;28;20021;-70
2023/04/29 14:45:37;;;;;;;20.52;18.42;;;;;;;-145.79;52.09;77799.09;5268143;28;20028;-71
2023/04/29 14:48:08;;;;;;;6.45;5.38;;;;;;;-145.79;50.97;77809.69;5270089;28;20799;-71
2023/04/29 14:50:39;;;;;;;5.68;4.38;;;;;;;-145.79;50.59;77807.59;5270127;28;20043;-71
2023/04/29 14:53:11;;;;;;;6.40;5.10;;;;;;;-145.79;51.04;77801.22;5270320;28;20143;-71
2023/04/29 14:55:42;;;;;;;6.70;5.47;;;;;;;-145.79;50.73;77803.34;5270873;28;20013;-71
2023/04/29 14:58:14;;;;;;;5.25;4.70;;;;;;;-145.79;51.55;77788.50;5270468;28;20032;-71
2023/04/29 15:00:46;;;;;;;6.40;5.10;;;;;;;-145.79;51.50;77780.03;5267544;28;20032;-74
2023/04/29 15:03:17;;;;;;;5.15;4.63;;;;;;;-145.79;51.16;77777.91;5268890;28;20476;-71
2023/04/29 15:05:49;;;;;;;6.20;5.60;;;;;;;-145.79;50.27;77780.03;5273158;28;20033;-71
2023/04/29 15:08:21;;;;;;;7.40;5.78;;;;;;;-145.79;50.97;77752.47;5261518;28;20426;-71
2023/04/29 15:10:52;;;;;;;6.18;4.90;;;;;;;-145.79;50.17;77754.59;5260718;28;20033;-71
2023/04/29 15:13:24;;;;;;;5.55;4.47;;;;;;;-145.79;49.69;77756.72;5261247;28;20569;-71
2023/04/29 15:15:55;;;;;;;6.20;5.00;;;;;;;-145.79;49.89;77769.44;5275992;28;20107;-72
2023/04/29 15:18:26;;;;;;;5.72;4.85;;;;;;;-145.79;49.80;77771.53;5281356;28;20055;-72
2023/04/29 15:20:58;;;;;;;5.53;5.03;;;;;;;-145.79;49.88;77767.31;5269187;28;20488;-72
2023/04/29 15:23:30;;;;;;;7.25;5.32;;;;;;;-145.79;50.13;77767.31;5281036;28;20032;-72
2023/04/29 15:26:01;;;;;;;5.68;4.97;;;;;;;-145.79;50.04;77758.81;5282271;28;20098;-72
2023/04/29 15:28:32;;;;;;;6.38;4.82;;;;;;;-145.79;49.26;77754.59;5279403;28;20020;-72
2023/04/29 15:31:04;;;;;;;12.98;11.80;;;;;;;-145.79;49.15;77758.81;5270547;28;20095;-72
2023/04/29 15:33:35;;;;;;;6.57;4.90;;;;;;;-145.79;49.39;77754.59;5261910;28;20021;-72
2023/04/29 15:36:07;;;;;;;6.72;5.22;;;;;;;-145.79;50.36;77754.59;5261427;28;20104;-72
2023/04/29 15:38:38;;;;;;;7.68;5.25;;;;;;;-145.79;50.38;77756.72;5260939;28;20021;-72
2023/04/29 15:41:09;;;;;;;5.60;4.68;;;;;;;-145.79;50.45;77767.31;5260255;28;20025;-71
2023/04/29 15:43:41;;;;;;;5.63;5.03;;;;;;;-145.79;50.33;77777.91;5263704;28;20020;-72
2023/04/29 15:46:12;;;;;;;5.93;5.43;;;;;;;-145.79;50.05;77803.34;5265128;28;20119;-71
2023/04/29 15:48:44;;;;;;;6.80;4.80;;;;;;;-145.79;50.64;77803.34;5264126;28;20468;-71
2023/04/29 15:51:16;;;;;;;9.63;4.60;;;;;;;-145.79;50.03;77809.69;5268670;28;20021;-71
2023/04/29 15:53:49;;;;;;;7.22;4.18;;;;;;;-145.79;50.33;77818.19;5276352;28;20025;-72
2023/04/29 15:56:21;;;;;;;5.03;4.47;;;;;;;-145.79;50.75;77809.69;5274359;28;20021;-71
2023/04/29 15:58:53;;;;;;;4.75;4.25;;;;;;;-145.79;50.53;77811.81;5263893;28;20028;-72
2023/04/29 16:01:26;;;;;;;7.20;5.60;;;;;;;-145.79;51.12;77807.59;5267744;28;20105;-72
2023/04/29 16:03:58;;;;;;;5.57;4.30;;;;;;;-145.79;51.19;77805.47;5267724;28;20060;-73
2023/04/29 16:06:29;;;;;;;6.85;4.85;;;;;;;-145.79;51.12;77809.69;5264636;28;20480;-72
2023/04/29 16:09:02;;;;;;;9.95;8.02;;;;;;;-145.79;50.89;77805.47;5264677;28;20025;-72
2023/04/29 16:11:34;;;;;;;5.45;4.95;;;;;;;-145.79;50.75;77801.22;5265775;28;20021;-72
2023/04/29 16:14:05;;;;;;;5.45;4.75;;;;;;;-145.79;50.60;77796.97;5264661;28;20044;-73
2023/04/29 16:16:36;;;;;;;6.28;4.32;;;;;;;-145.79;50.39;77769.44;5263345;28;20021;-72
2023/04/29 16:19:08;;;;;;;6.90;5.07;;;;;;;-145.79;50.41;77737.63;5262804;28;20468;-71
2023/04/29 16:21:40;;;;;;;6.28;5.65;;;;;;;-145.79;49.10;77746.09;5261987;28;20140;-73
2023/04/29 16:24:12;;;;;;;7.07;4.57;;;;;;;-145.79;48.67;77767.31;5262769;28;20033;-72
2023/04/29 16:26:44;;;;;;;6.72;5.55;;;;;;;-145.79;48.90;77780.03;5261705;28;20017;-72
2023/04/29 16:29:15;;;;;;;8.73;4.97;;;;;;;-145.79;49.49;77788.50;5278573;28;20472;-73
2023/04/29 16:31:46;;;;;;;5.35;4.60;;;;;;;-145.79;49.43;77796.97;5278562;28;20017;-71
2023/04/29 16:34:18;;;;;;;8.98;4.90;;;;;;;-145.79;49.04;77811.81;5262897;28;20029;-72
2023/04/29 16:36:50;;;;;;;5.07;4.50;;;;;;;-145.79;49.38;77824.53;5273632;28;20043;-72
2023/04/29 16:39:21;;;;;;;5.80;4.80;;;;;;;-145.79;49.88;77822.41;5265419;28;20480;-72
2023/04/29 16:41:52;;;;;;;6.65;4.50;;;;;;;-145.79;49.62;77826.66;5275851;28;20067;-72
2023/04/29 16:44:24;;;;;;;5.38;4.32;;;;;;;-145.79;50.82;77822.41;5270045;28;20470;-73
2023/04/29 16:46:55;;;;;;;5.82;4.18;;;;;;;-145.79;50.27;77826.66;5284422;28;20056;-72
2023/04/29 16:49:26;;;;;;;6.10;4.60;;;;;;;-145.79;50.73;77820.31;5282560;28;20035;-73
2023/04/29 16:51:58;;;;;;;6.97;4.40;;;;;;;-145.79;49.57;77822.41;5283028;28;20051;-71
